Time;durP1;ratioP1;P1;durP2;ratioP2;P2;SDS_P1;SDS_P2;PMS_P1;PMS_P2;Temp;Humidity;BMP_temperature;BMP_pressure;BME280_temperature;BME280_humidity;BME280_pressure;Samples;Min_cycle;Max_cycle;Signal;HPM_P1;HPM_P2
2022/04/01 04:22:56;;;;;;;39.40;20.52;;;;;;;4.23;100.00;98488.44;5129438;27;20124;-76
2022/04/01 04:25:25;;;;;;;;;;;;;;;4.32;100.00;98492.69;5111505;28;20035;-76
2022/04/01 04:27:58;;;;;;;37.70;18.63;;;;;;;4.28;100.00;98490.56;5111400;28;20299;-76
2022/04/01 04:30:50;;;;;;;37.03;18.17;;;;;;;4.19;100.00;98489.81;5111397;28;20043;-77
2022/04/01 04:33:46;;;;;;;37.33;20.15;;;;;;;4.25;100.00;98496.19;5120959;27;20130;-77
2022/04/01 04:36:16;;;;;;;34.45;18.77;;;;;;;4.30;100.00;98499.09;5083951;22;20040;-75
2022/04/01 04:38:55;;;;;;;35.58;18.45;;;;;;;4.27;99.28;98502.09;5050840;28;20041;-75
2022/04/01 04:41:23;;;;;;;34.42;18.50;;;;;;;4.30;100.00;98505.22;5050608;28;20509;-73
2022/04/01 04:44:02;;;;;;;31.83;16.52;;;;;;;4.19;100.00;98512.72;5050594;28;20127;-75
2022/04/01 04:46:30;;;;;;;37.22;17.75;;;;;;;4.10;98.25;98509.28;5050695;28;20405;-77
2022/04/01 04:48:57;;;;;;;34.38;18.10;;;;;;;4.12;97.32;98512.59;5050580;28;20089;-77
2022/04/01 04:51:27;;;;;;;35.47;17.80;;;;;;;4.12;97.46;98511.78;5050401;28;20123;-76
2022/04/01 04:54:20;;;;;;;33.78;18.40;;;;;;;4.14;97.52;98515.03;5037124;28;20286;-76
2022/04/01 04:57:01;;;;;;;32.53;16.65;;;;;;;4.05;96.85;98523.00;5050325;28;20048;-76
2022/04/01 04:59:30;;;;;;;31.45;17.42;;;;;;;4.13;97.53;98516.84;5050186;28;20047;-77
2022/04/01 05:02:05;;;;;;;33.15;17.98;;;;;;;4.05;98.58;98533.53;5050067;28;20029;-77
2022/04/01 05:05:00;;;;;;;33.58;17.85;;;;;;;4.11;99.05;98532.03;5050139;28;20037;-76
2022/04/01 05:07:49;;;;;;;35.45;18.55;;;;;;;4.03;97.31;98543.41;5050026;28;20032;-77
2022/04/01 05:10:56;;;;;;;32.25;17.23;;;;;;;3.97;97.90;98536.19;5067874;28;20078;-74
2022/04/01 05:13:49;;;;;;;37.05;19.98;;;;;;;3.99;98.14;98538.69;5049797;28;20136;-77
2022/04/01 05:16:36;;;;;;;32.28;18.13;;;;;;;4.05;98.24;98543.25;5049851;28;20123;-77
2022/04/01 05:19:17;;;;;;;32.95;18.33;;;;;;;4.04;97.66;98552.13;5049834;28;20033;-77
2022/04/01 05:22:02;;;;;;;33.92;17.98;;;;;;;4.01;95.07;98547.22;5049436;28;20047;-76
2022/04/01 05:24:38;;;;;;;33.42;18.40;;;;;;;4.11;95.89;98547.84;5049758;28;20044;-76
2022/04/01 05:27:07;;;;;;;32.08;16.63;;;;;;;4.12;93.58;98552.13;5049658;28;20148;-77
2022/04/01 05:30:14;;;;;;;32.40;17.63;;;;;;;4.07;95.29;98557.06;5041039;28;20091;-76
2022/04/01 05:33:00;;;;;;;36.15;18.42;;;;;;;3.95;93.20;98561.91;5042540;28;20033;-76
2022/04/01 05:35:32;;;;;;;32.88;17.58;;;;;;;4.05;95.45;98566.97;5036139;28;20162;-76
2022/04/01 05:37:59;;;;;;;33.72;18.23;;;;;;;4.07;92.97;98568.44;5036367;28;20036;-76
2022/04/01 05:40:28;;;;;;;36.28;19.27;;;;;;;4.08;96.67;98570.06;5036129;28;20060;-76
2022/04/01 05:42:59;;;;;;;31.88;17.98;;;;;;;4.02;95.74;98570.75;5035794;28;20110;-76
2022/04/01 05:45:40;;;;;;;32.67;17.42;;;;;;;4.04;93.04;98579.34;5054257;28;20048;-76
2022/04/01 05:48:11;;;;;;;34.78;18.40;;;;;;;3.94;93.67;98583.16;5036080;28;20064;-77
2022/04/01 05:50:38;;;;;;;31.65;17.35;;;;;;;3.84;94.40;98579.91;5036156;28;20033;-74
2022/04/01 05:53:07;;;;;;;37.03;19.15;;;;;;;3.86;95.25;98581.38;5035566;28;20041;-75
2022/04/01 05:55:45;;;;;;;31.30;16.50;;;;;;;4.03;92.81;98587.38;5035817;28;20101;-74
2022/04/01 05:58:11;;;;;;;30.17;17.05;;;;;;;3.87;90.75;98595.38;5035888;28;20059;-74
2022/04/01 06:00:51;;;;;;;31.27;17.20;;;;;;;3.85;91.69;98586.81;5035703;28;20457;-71
2022/04/01 06:03:16;;;;;;;34.85;18.10;;;;;;;3.83;93.31;98594.06;5035458;28;20425;-71
2022/04/01 06:06:00;;;;;;;34.00;18.42;;;;;;;3.86;91.57;98602.47;5035610;28;20037;-71
2022/04/01 06:08:32;;;;;;;32.80;18.13;;;;;;;3.89;93.02;98599.47;5035662;28;20126;-71
2022/04/01 06:11:16;;;;;;;30.88;18.13;;;;;;;3.83;92.64;98602.78;5035606;28;20035;-71
2022/04/01 06:14:42;;;;;;;30.08;16.20;;;;;;;3.97;92.11;98603.88;5015117;28;20036;-71
2022/04/01 06:18:00;;;;;;;33.55;17.10;;;;;;;3.95;92.18;98603.25;5054029;28;20102;-71
2022/04/01 06:20:27;;;;;;;28.38;16.50;;;;;;;3.99;91.60;98597.47;5035388;28;20029;-72
2022/04/01 06:23:06;;;;;;;30.80;15.65;;;;;;;4.02;89.50;98597.09;5035041;28;20387;-70
2022/04/01 06:25:44;;;;;;;30.02;16.92;;;;;;;4.01;93.76;98613.91;5035307;28;20120;-71
2022/04/01 06:28:24;;;;;;;30.35;16.75;;;;;;;3.88;93.63;98605.72;5035318;28;20045;-73
2022/04/01 06:31:03;;;;;;;31.65;17.02;;;;;;;4.06;92.16;98602.88;5035175;28;20063;-72
2022/04/01 06:33:47;;;;;;;31.43;16.83;;;;;;;4.17;90.03;98617.47;5034861;28;20040;-73
2022/04/01 06:36:39;;;;;;;32.58;17.15;;;;;;;4.11;90.16;98623.41;5052946;28;20303;-73
2022/04/01 06:39:06;;;;;;;31.38;16.88;;;;;;;4.23;92.50;98632.59;5035147;28;20516;-72
2022/04/01 06:41:51;;;;;;;32.28;16.80;;;;;;;3.90;91.60;98631.91;5034808;28;20045;-71
2022/04/01 06:44:35;;;;;;;32.67;18.10;;;;;;;3.90;91.79;98632.72;5052158;28;20048;-71
2022/04/01 06:47:19;;;;;;;32.70;17.02;;;;;;;4.05;91.41;98635.50;5053150;28;20527;-72
2022/04/01 06:49:46;;;;;;;32.17;16.63;;;;;;;3.92;91.29;98632.56;5034930;28;20032;-72
2022/04/01 06:52:31;;;;;;;31.83;15.95;;;;;;;4.01;90.99;98635.00;5053075;28;20106;-72
2022/04/01 06:55:29;;;;;;;33.60;17.42;;;;;;;4.12;90.25;98640.91;5052206;28;20666;-71
2022/04/01 06:57:58;;;;;;;33.53;16.50;;;;;;;4.19;89.98;98640.03;5034839;28;20037;-74
2022/04/01 07:00:44;;;;;;;34.72;17.77;;;;;;;4.12;90.24;98638.25;5037833;28;20040;-75
2022/04/01 07:03:10;;;;;;;32.58;17.35;;;;;;;4.20;91.57;98636.41;5052476;28;20033;-72
2022/04/01 07:05:37;;;;;;;32.90;17.40;;;;;;;4.16;91.99;98644.81;5052486;28;20045;-72
2022/04/01 07:09:00;;;;;;;33.97;17.50;;;;;;;4.17;90.82;98635.91;5052970;28;20570;-71
2022/04/01 07:11:26;;;;;;;27.48;15.20;;;;;;;4.13;90.07;98642.53;4992458;28;20085;-75
2022/04/01 07:13:53;;;;;;;29.70;15.90;;;;;;;4.16;90.35;98644.81;4990474;28;20046;-75
2022/04/01 07:16:19;;;;;;;28.55;15.45;;;;;;;4.07;90.43;98639.59;5013217;28;20048;-74
2022/04/01 07:18:44;;;;;;;33.47;16.50;;;;;;;4.01;89.93;98639.44;5052176;28;20037;-75
2022/04/01 07:21:10;;;;;;;34.28;16.92;;;;;;;4.09;90.12;98642.88;5034349;28;20071;-74
2022/04/01 07:23:37;;;;;;;29.40;16.13;;;;;;;4.17;88.99;98642.00;5051839;28;20032;-71
2022/04/01 07:26:03;;;;;;;30.23;14.88;;;;;;;4.16;90.59;98650.09;5052150;28;20044;-71
2022/04/01 07:28:28;;;;;;;30.63;15.77;;;;;;;4.08;92.25;98649.13;5051976;28;20033;-72
2022/04/01 07:30:55;;;;;;;31.33;15.32;;;;;;;4.14;91.76;98646.81;5052085;28;20033;-72
2022/04/01 07:33:20;;;;;;;29.10;14.85;;;;;;;4.12;91.98;98654.91;5017373;28;20044;-73
2022/04/01 07:35:49;;;;;;;32.40;14.95;;;;;;;4.12;90.73;98639.09;5051949;28;20045;-75
2022/04/01 07:38:16;;;;;;;30.55;15.60;;;;;;;4.15;87.88;98656.34;5034075;28;20043;-74
2022/04/01 07:40:42;;;;;;;29.75;15.52;;;;;;;4.14;91.27;98652.91;5051846;28;20116;-75
2022/04/01 07:43:09;;;;;;;28.02;14.73;;;;;;;4.21;90.68;98653.84;5051385;28;20136;-73
2022/04/01 07:45:37;;;;;;;31.92;15.43;;;;;;;4.22;90.64;98654.69;5051885;28;20108;-75
2022/04/01 07:48:03;;;;;;;31.35;16.98;;;;;;;4.19;89.60;98652.41;5051983;28;20037;-74
2022/04/01 07:50:29;;;;;;;27.05;14.10;;;;;;;4.18;87.18;98656.03;5051820;28;20037;-73
2022/04/01 07:52:54;;;;;;;29.63;16.30;;;;;;;4.16;90.45;98656.19;5033622;28;20040;-72
2022/04/01 07:55:20;;;;;;;34.22;16.08;;;;;;;4.13;90.85;98656.53;5051264;28;20395;-71
2022/04/01 07:57:48;;;;;;;28.55;15.48;;;;;;;4.07;91.19;98659.84;5051623;28;20510;-71
2022/04/01 08:00:16;;;;;;;31.33;15.68;;;;;;;4.19;89.48;98666.41;5051560;28;20029;-75
2022/04/01 08:02:42;;;;;;;27.92;14.48;;;;;;;4.19;90.52;98676.13;5051275;28;20052;-74
2022/04/01 08:05:09;;;;;;;28.63;15.15;;;;;;;4.15;91.37;98674.81;5033484;28;20190;-73
2022/04/01 08:07:34;;;;;;;31.77;15.85;;;;;;;4.15;89.63;98672.16;5033820;28;20036;-74
2022/04/01 08:10:00;;;;;;;29.10;15.55;;;;;;;4.07;91.36;98668.56;5051484;28;20098;-74
2022/04/01 08:12:26;;;;;;;30.73;15.20;;;;;;;4.13;91.26;98674.16;5051053;28;20517;-74
2022/04/01 08:14:51;;;;;;;34.22;15.35;;;;;;;4.24;91.51;98679.06;5051292;28;20045;-74
2022/04/01 08:17:17;;;;;;;30.30;15.90;;;;;;;4.16;92.10;98685.16;5033829;28;20048;-74
2022/04/01 08:19:43;;;;;;;29.30;15.57;;;;;;;4.17;91.40;98681.53;5033687;28;20029;-74
2022/04/01 08:22:10;;;;;;;26.38;13.95;;;;;;;4.27;88.99;98684.00;5050929;28;20080;-74
2022/04/01 08:24:36;;;;;;;31.38;14.77;;;;;;;4.14;90.29;98695.06;5051362;28;20037;-75
2022/04/01 08:27:03;;;;;;;28.95;14.63;;;;;;;4.31;90.60;98695.84;5033564;28;20409;-73
2022/04/01 08:29:30;;;;;;;27.05;13.68;;;;;;;4.14;90.85;98697.69;5051239;28;20052;-74
2022/04/01 08:31:57;;;;;;;31.35;14.38;;;;;;;4.14;90.57;98691.63;5050883;28;20024;-73
2022/04/01 08:34:23;;;;;;;30.17;14.97;;;;;;;4.17;89.82;98699.97;5051118;28;20482;-73
2022/04/01 08:36:49;;;;;;;26.52;14.50;;;;;;;4.08;89.28;98701.84;5051353;28;20044;-74
2022/04/01 08:39:15;;;;;;;27.65;14.40;;;;;;;4.15;88.34;98706.44;5000516;28;20033;-74
2022/04/01 08:41:41;;;;;;;29.27;14.90;;;;;;;4.12;89.35;98704.16;5051224;28;20140;-74
2022/04/01 08:44:07;;;;;;;25.58;13.63;;;;;;;4.23;87.52;98709.84;5050934;28;20451;-73
2022/04/01 08:46:33;;;;;;;26.42;13.50;;;;;;;4.14;87.26;98704.78;5050872;28;20041;-71
2022/04/01 08:49:00;;;;;;;25.50;14.55;;;;;;;3.99;89.81;98709.94;5051013;28;20125;-71
2022/04/01 08:51:26;;;;;;;26.38;13.23;;;;;;;4.16;88.54;98723.88;5050915;28;20033;-71
2022/04/01 08:53:52;;;;;;;23.55;12.88;;;;;;;4.02;88.98;98720.94;5032922;28;20490;-71
2022/04/01 08:56:21;;;;;;;27.58;14.52;;;;;;;4.15;89.36;98722.25;5050805;28;20033;-71
2022/04/01 08:58:47;;;;;;;27.13;14.63;;;;;;;3.99;89.21;98717.84;5050881;28;20041;-71
2022/04/01 09:01:13;;;;;;;29.88;14.82;;;;;;;4.17;87.84;98721.06;5032807;28;20048;-71
2022/04/01 09:03:40;;;;;;;30.42;15.90;;;;;;;4.16;90.70;98727.34;5050765;28;20132;-71
2022/04/01 09:06:07;;;;;;;24.55;13.43;;;;;;;4.24;87.84;98727.34;5050990;28;20437;-71
2022/04/01 09:08:35;;;;;;;24.95;13.30;;;;;;;4.23;87.73;98727.47;5053355;28;20041;-71
2022/04/01 09:11:18;;;;;;;23.58;12.85;;;;;;;4.23;86.24;98735.38;5055095;28;20456;-71
2022/04/01 09:13:47;;;;;;;24.70;13.77;;;;;;;4.25;88.79;98741.34;5054725;28;20041;-71
2022/04/01 09:16:31;;;;;;;27.52;13.93;;;;;;;4.19;89.18;98747.28;5036570;28;20042;-72
2022/04/01 09:19:04;;;;;;;25.83;13.68;;;;;;;4.07;88.24;98746.81;5054519;28;20036;-71
2022/04/01 09:21:32;;;;;;;24.35;14.38;;;;;;;4.07;89.37;98752.91;5054067;28;20045;-71
2022/04/01 09:23:59;;;;;;;22.20;12.68;;;;;;;4.13;88.14;98750.59;5054309;28;20029;-71
2022/04/01 09:26:37;;;;;;;29.20;14.02;;;;;;;4.18;90.04;98750.91;5054301;28;20401;-71
2022/04/01 09:29:08;;;;;;;24.70;13.13;;;;;;;4.24;89.37;98750.25;5054294;28;20037;-70
2022/04/01 09:31:37;;;;;;;28.10;13.82;;;;;;;4.22;89.79;98749.56;5036271;28;20033;-71
2022/04/01 09:34:09;;;;;;;26.95;14.63;;;;;;;4.08;88.87;98751.09;5054145;28;20032;-73
2022/04/01 09:36:37;;;;;;;25.70;13.98;;;;;;;4.09;90.60;98758.00;5054141;28;20110;-72
2022/04/01 09:39:16;;;;;;;23.17;14.23;;;;;;;4.14;89.00;98760.13;5054170;28;20366;-73
2022/04/01 09:41:52;;;;;;;25.13;13.90;;;;;;;4.16;88.79;98764.22;5053773;28;20486;-73
2022/04/01 09:44:36;;;;;;;26.00;14.45;;;;;;;4.14;88.59;98763.59;5054190;28;20119;-73
2022/04/01 09:47:04;;;;;;;24.38;14.25;;;;;;;4.06;87.29;98766.25;5054285;28;20359;-73
2022/04/01 09:49:45;;;;;;;22.25;13.52;;;;;;;4.02;88.58;98763.13;5054031;28;20029;-73
2022/04/01 09:52:15;;;;;;;21.45;12.70;;;;;;;4.06;88.32;98767.06;5035738;28;20356;-72
2022/04/01 09:54:44;;;;;;;26.27;13.43;;;;;;;4.12;88.85;98773.50;5053906;28;20040;-74
2022/04/01 09:57:10;;;;;;;25.58;14.43;;;;;;;4.03;88.84;98767.38;5054032;28;20419;-73
2022/04/01 09:59:36;;;;;;;20.13;11.75;;;;;;;3.96;89.09;98769.03;5019941;28;20041;-73
2022/04/01 10:02:02;;;;;;;25.58;13.75;;;;;;;3.90;88.50;98771.53;5036269;28;20257;-73
2022/04/01 10:04:28;;;;;;;23.00;12.85;;;;;;;3.98;88.71;98775.00;5053774;28;20037;-74
2022/04/01 10:06:55;;;;;;;26.77;13.40;;;;;;;4.01;89.64;98779.91;5036053;28;20049;-74
2022/04/01 10:09:21;;;;;;;25.90;12.43;;;;;;;4.06;87.66;98788.16;5053831;28;20056;-74
2022/04/01 10:11:49;;;;;;;23.00;13.43;;;;;;;3.85;89.39;98779.09;5053553;28;20108;-74
2022/04/01 10:14:18;;;;;;;23.02;12.40;;;;;;;3.98;88.15;98782.91;5053546;28;20110;-74
2022/04/01 10:16:46;;;;;;;20.73;12.10;;;;;;;4.08;88.14;98775.63;5035822;28;20136;-74
2022/04/01 10:19:17;;;;;;;24.13;13.07;;;;;;;3.97;87.55;98785.69;5053475;28;20044;-72
2022/04/01 10:21:44;;;;;;;21.83;13.32;;;;;;;3.99;89.13;98789.81;5053179;28;20037;-74
2022/04/01 10:24:28;;;;;;;22.70;13.15;;;;;;;4.01;88.98;98790.47;5019653;28;20041;-73
2022/04/01 10:27:13;;;;;;;21.67;12.77;;;;;;;3.94;88.55;98799.19;5053612;28;20047;-73
2022/04/01 10:29:39;;;;;;;25.90;13.32;;;;;;;3.96;88.95;98795.41;5053454;28;20057;-74
2022/04/01 10:32:25;;;;;;;26.50;15.60;;;;;;;3.86;89.88;98796.56;5035893;28;20033;-75
2022/04/01 10:34:53;;;;;;;24.15;14.02;;;;;;;3.97;89.45;98798.84;5073174;22;20383;-70
2022/04/01 10:37:21;;;;;;;27.08;14.57;;;;;;;4.00;88.21;98796.72;5033842;28;20500;-71
2022/04/01 10:39:50;;;;;;;26.13;14.48;;;;;;;3.81;90.69;98794.44;5016183;28;20025;-70
2022/04/01 10:42:17;;;;;;;28.25;16.85;;;;;;;3.83;91.49;98797.72;5033460;28;20041;-69
2022/04/01 10:44:48;;;;;;;28.13;16.73;;;;;;;3.91;90.65;98810.91;5031880;28;20033;-70
2022/04/01 10:47:14;;;;;;;31.30;16.73;;;;;;;4.04;91.32;98815.63;5033232;28;20044;-70
2022/04/01 10:52:24;;;;;;;31.63;18.27;;;;;;;3.97;92.10;98814.66;5032514;28;20045;-70
2022/04/01 10:55:06;;;;;;;34.75;18.23;;;;;;;3.95;90.60;98814.84;5032698;28;20083;-70
2022/04/01 10:57:37;;;;;;;28.75;17.48;;;;;;;4.02;88.77;98818.44;5017345;28;20474;-71
2022/04/01 11:00:08;;;;;;;30.73;17.45;;;;;;;3.98;89.15;98821.59;5032821;28;20523;-70
2022/04/01 11:02:34;;;;;;;29.50;17.85;;;;;;;3.91;87.87;98813.53;5032728;28;20037;-70
2022/04/01 11:05:19;;;;;;;31.60;18.33;;;;;;;3.83;90.54;98810.88;5032843;28;20033;-70
2022/04/01 11:07:45;;;;;;;28.40;16.33;;;;;;;3.93;89.03;98822.09;5032582;28;20064;-70
2022/04/01 11:10:23;;;;;;;33.78;17.60;;;;;;;3.89;90.60;98823.41;5032496;28;20406;-70
2022/04/01 11:12:50;;;;;;;32.28;19.20;;;;;;;3.93;90.84;98824.72;5032387;28;20044;-70
2022/04/01 11:15:22;;;;;;;35.80;19.98;;;;;;;3.96;94.50;98829.66;5014876;28;20037;-71
2022/04/01 11:17:49;;;;;;;32.33;18.38;;;;;;;3.80;91.49;98827.03;5032756;28;20037;-71
2022/04/01 11:20:27;;;;;;;30.25;17.55;;;;;;;3.68;91.55;98825.69;5033276;28;20500;-71
2022/04/01 11:22:53;;;;;;;31.92;18.30;;;;;;;3.68;91.37;98836.25;5033594;28;20087;-70
2022/04/01 11:25:21;;;;;;;31.15;17.92;;;;;;;3.76;91.67;98830.97;5033091;28;20030;-71
2022/04/01 11:27:51;;;;;;;30.63;18.73;;;;;;;3.88;89.04;98840.19;5032210;28;20041;-70
2022/04/01 11:30:24;;;;;;;31.50;18.80;;;;;;;3.68;91.01;98833.59;5014252;28;20095;-72
2022/04/01 11:33:14;;;;;;;33.80;19.65;;;;;;;3.77;94.16;98843.97;5015167;28;20033;-69
2022/04/01 11:35:46;;;;;;;31.33;16.85;;;;;;;3.74;90.40;98846.13;5023061;28;20504;-71
2022/04/01 11:38:15;;;;;;;29.17;17.65;;;;;;;3.77;91.03;98836.06;5014657;28;20069;-71
2022/04/01 11:40:42;;;;;;;30.50;17.35;;;;;;;3.93;90.18;98844.97;5031922;28;20061;-71
2022/04/01 11:43:10;;;;;;;29.92;17.73;;;;;;;3.92;89.17;98849.44;5031512;28;20076;-72
2022/04/01 11:45:51;;;;;;;28.38;16.85;;;;;;;3.74;90.42;98846.13;5031903;28;20061;-71
2022/04/01 11:48:26;;;;;;;30.15;17.35;;;;;;;3.68;91.54;98841.50;5014385;28;20040;-71
2022/04/01 11:50:55;;;;;;;30.17;17.05;;;;;;;3.53;92.08;98841.31;5031948;28;20120;-71
2022/04/01 11:53:24;;;;;;;28.00;16.77;;;;;;;3.55;89.18;98849.88;5031516;28;20064;-71
2022/04/01 11:55:50;;;;;;;33.20;17.02;;;;;;;3.49;90.84;98850.53;5014081;28;20048;-71
2022/04/01 11:58:16;;;;;;;30.10;16.58;;;;;;;3.53;92.37;98857.94;5014397;28;20046;-70
2022/04/01 12:00:42;;;;;;;30.65;16.70;;;;;;;3.30;91.98;98849.00;5031797;28;20029;-71
2022/04/01 12:03:11;;;;;;;28.20;16.27;;;;;;;3.38;91.54;98851.66;5031573;28;20041;-71
2022/04/01 12:05:41;;;;;;;32.08;16.98;;;;;;;3.59;90.69;98855.66;5031808;28;20095;-70
2022/04/01 12:11:00;;;;;;;29.67;17.23;;;;;;;3.66;94.29;98860.09;5031942;28;20422;-71
2022/04/01 12:13:29;;;;;;;30.63;17.13;;;;;;;3.62;90.66;98853.50;5031369;28;20095;-70
2022/04/01 12:15:56;;;;;;;32.60;17.30;;;;;;;3.57;92.48;98868.97;5031575;28;20056;-70
2022/04/01 12:18:26;;;;;;;27.90;15.55;;;;;;;3.58;90.62;98854.81;5014141;28;20036;-70
2022/04/01 12:20:53;;;;;;;32.45;18.00;;;;;;;3.61;91.03;98856.31;5031751;28;20695;-70
2022/04/01 12:23:22;;;;;;;28.10;16.23;;;;;;;3.53;92.42;98849.22;5030165;28;20244;-70
2022/04/01 12:25:49;;;;;;;35.28;17.33;;;;;;;3.48;92.29;98873.41;5031515;28;20046;-70
2022/04/01 12:28:16;;;;;;;32.55;17.88;;;;;;;3.33;91.23;98875.00;5031748;28;20167;-70
2022/04/01 12:30:45;;;;;;;35.43;18.73;;;;;;;3.60;88.42;98870.47;5032043;28;20033;-70
2022/04/01 12:33:24;;;;;;;31.98;16.35;;;;;;;3.32;91.58;98877.78;5031847;28;20520;-71
2022/04/01 12:35:52;;;;;;;31.83;16.63;;;;;;;3.27;91.63;98870.38;5031680;28;20038;-71
2022/04/01 12:38:19;;;;;;;28.55;16.10;;;;;;;3.17;93.27;98867.88;5031811;28;20026;-70
2022/04/01 12:40:44;;;;;;;28.70;15.65;;;;;;;3.41;92.22;98871.56;5031326;28;20032;-71
2022/04/01 12:43:34;;;;;;;28.20;16.00;;;;;;;3.31;92.82;98868.25;5033099;28;20411;-70
2022/04/01 12:46:15;;;;;;;31.77;17.80;;;;;;;3.41;94.80;98877.66;5035496;28;20619;-71
2022/04/01 12:48:58;;;;;;;30.15;17.80;;;;;;;3.26;95.25;98882.72;5035488;28;20038;-71
2022/04/01 12:51:27;;;;;;;35.38;17.63;;;;;;;3.24;93.92;98868.06;5035216;28;20042;-71
2022/04/01 12:54:02;;;;;;;27.17;15.40;;;;;;;3.23;93.35;98880.41;5035122;28;20048;-71
2022/04/01 12:56:36;;;;;;;29.00;16.15;;;;;;;3.22;93.14;98891.09;5035093;28;20041;-70
2022/04/01 12:59:10;;;;;;;32.10;15.95;;;;;;;3.32;94.30;98890.94;5035185;28;20034;-71
2022/04/01 13:01:38;;;;;;;29.77;16.17;;;;;;;3.47;91.82;98892.00;5035047;28;20029;-70
2022/04/01 13:04:05;;;;;;;36.28;20.33;;;;;;;3.52;96.54;98892.31;5035217;28;20432;-70
2022/04/01 13:06:31;;;;;;;27.52;15.07;;;;;;;3.59;91.47;98892.53;5034918;28;20037;-70
2022/04/01 13:09:04;;;;;;;29.35;15.98;;;;;;;3.56;94.94;98890.19;5017244;28;20037;-70
2022/04/01 13:11:44;;;;;;;29.00;15.57;;;;;;;3.67;90.34;98895.16;5035086;28;20042;-70
2022/04/01 13:14:22;;;;;;;22.67;14.43;;;;;;;3.42;92.59;98894.28;5035993;28;20048;-71
2022/04/01 13:16:49;;;;;;;25.92;15.55;;;;;;;3.32;93.17;98894.41;5035892;28;20580;-69
2022/04/01 13:19:21;;;;;;;31.83;17.48;;;;;;;3.38;92.22;98903.47;5036097;28;20040;-70
2022/04/01 13:21:48;;;;;;;33.88;18.50;;;;;;;3.42;93.00;98900.38;5035407;28;20096;-70
2022/04/01 13:24:19;;;;;;;29.50;16.83;;;;;;;3.35;93.69;98894.09;5035690;28;20040;-70
2022/04/01 13:26:44;;;;;;;29.35;16.27;;;;;;;3.35;94.92;98896.72;5034612;28;20073;-70
2022/04/01 13:29:10;;;;;;;24.75;15.52;;;;;;;3.38;95.92;98895.56;5034845;28;20072;-70
2022/04/01 13:31:36;;;;;;;31.38;20.63;;;;;;;3.44;95.71;98897.56;5034255;28;20080;-70
2022/04/01 13:34:02;;;;;;;27.48;17.35;;;;;;;3.43;97.04;98893.28;5034298;28;20044;-70
2022/04/01 13:36:28;;;;;;;24.98;14.63;;;;;;;3.28;94.89;98897.53;5034197;28;20091;-70
2022/04/01 13:38:54;;;;;;;25.25;14.70;;;;;;;3.21;94.74;98899.97;5034696;28;20045;-70
2022/04/01 13:41:20;;;;;;;27.88;15.60;;;;;;;3.32;93.17;98910.19;5034740;28;20048;-70
2022/04/01 13:43:45;;;;;;;23.65;14.60;;;;;;;3.22;95.23;98912.97;5034044;28;20038;-70
2022/04/01 13:46:12;;;;;;;26.63;15.95;;;;;;;3.08;96.52;98912.75;5033971;28;20041;-70
2022/04/01 13:48:38;;;;;;;23.80;14.98;;;;;;;3.03;95.30;98915.03;5000081;28;20064;-70
2022/04/01 13:51:03;;;;;;;26.02;15.27;;;;;;;3.10;97.20;98910.78;5033857;28;20033;-70
2022/04/01 13:53:29;;;;;;;25.65;14.27;;;;;;;3.07;97.16;98919.00;5033355;28;20096;-71
2022/04/01 13:55:54;;;;;;;27.30;15.35;;;;;;;3.03;98.33;98920.28;5033769;28;20034;-70
2022/04/01 13:58:20;;;;;;;22.60;13.07;;;;;;;2.91;96.63;98919.72;5033980;28;20045;-71
2022/04/01 14:00:46;;;;;;;22.02;12.98;;;;;;;2.95;96.13;98919.25;5034042;28;20041;-70
2022/04/01 14:03:11;;;;;;;21.33;11.93;;;;;;;2.86;95.80;98916.72;4983494;28;20164;-69
2022/04/01 14:05:37;;;;;;;18.67;10.82;;;;;;;2.90;93.89;98918.91;5033924;28;20494;-70
2022/04/01 14:08:03;;;;;;;19.13;12.60;;;;;;;2.80;96.30;98917.34;5034014;28;20064;-71
2022/04/01 14:10:29;;;;;;;18.02;11.38;;;;;;;2.78;94.38;98922.78;5033719;28;20033;-70
2022/04/01 14:12:55;;;;;;;19.95;11.75;;;;;;;2.90;95.90;98921.53;5015779;28;20033;-70
2022/04/01 14:15:21;;;;;;;18.17;11.38;;;;;;;3.09;95.06;98924.91;5033473;28;20036;-70
2022/04/01 14:17:47;;;;;;;17.85;11.25;;;;;;;3.08;94.99;98923.28;5033296;28;20398;-70
2022/04/01 14:20:14;;;;;;;23.10;14.07;;;;;;;3.10;100.00;98927.38;5033447;28;20052;-70
2022/04/01 14:22:42;;;;;;;19.17;12.65;;;;;;;3.07;99.32;98932.16;5032943;28;20037;-70
2022/04/01 14:25:09;;;;;;;20.80;12.75;;;;;;;3.00;99.98;98931.97;5033206;28;20044;-71
2022/04/01 14:27:35;;;;;;;19.40;12.38;;;;;;;2.81;97.84;98942.69;5015616;28;20060;-71
2022/04/01 14:30:17;;;;;;;21.00;13.27;;;;;;;2.73;100.00;98944.28;5033552;28;20486;-70
2022/04/01 14:32:48;;;;;;;22.75;12.90;;;;;;;2.76;99.84;98943.16;5032767;28;20044;-70
2022/04/01 14:35:13;;;;;;;24.88;13.40;;;;;;;2.70;100.00;98956.91;5033034;28;20036;-71
2022/04/01 14:37:39;;;;;;;21.83;12.80;;;;;;;2.64;100.00;98949.63;5015689;28;20402;-70
2022/04/01 14:40:06;;;;;;;21.83;12.85;;;;;;;2.64;100.00;98957.53;5033178;28;20375;-71
2022/04/01 14:42:32;;;;;;;22.10;11.68;;;;;;;2.69;100.00;98963.16;5032900;28;20029;-70
2022/04/01 14:45:01;;;;;;;21.30;11.90;;;;;;;2.67;100.00;98951.94;5033195;28;20064;-70
2022/04/01 14:47:28;;;;;;;18.15;11.35;;;;;;;2.59;100.00;98954.53;5033070;28;20038;-71
2022/04/01 14:49:54;;;;;;;17.27;11.15;;;;;;;2.81;98.50;98967.19;5032901;28;20091;-70
2022/04/01 14:52:19;;;;;;;16.63;10.48;;;;;;;2.76;99.53;98961.56;5032736;28;20037;-71
2022/04/01 14:54:45;;;;;;;18.48;10.43;;;;;;;2.70;97.36;98962.19;5033380;28;20045;-71
2022/04/01 14:57:11;;;;;;;20.08;11.18;;;;;;;2.55;100.00;98966.34;5033337;28;20045;-71
2022/04/01 14:59:36;;;;;;;16.27;10.38;;;;;;;2.53;98.63;98968.28;5033241;28;20104;-71
2022/04/01 15:02:02;;;;;;;17.52;10.45;;;;;;;2.62;97.42;98972.66;5032753;28;20110;-71
2022/04/01 15:04:28;;;;;;;17.75;10.75;;;;;;;2.57;100.00;98978.34;5032608;28;20033;-70
2022/04/01 15:06:54;;;;;;;18.63;10.70;;;;;;;2.38;100.00;98973.28;5032382;28;20033;-71
2022/04/01 15:09:20;;;;;;;19.55;10.65;;;;;;;2.43;99.53;98984.97;5033246;28;20055;-70
2022/04/01 15:11:46;;;;;;;17.13;10.80;;;;;;;2.37;100.00;98977.69;5032830;28;20398;-70
2022/04/01 15:14:12;;;;;;;16.42;9.85;;;;;;;2.29;97.02;98985.53;5033403;28;20040;-70
2022/04/01 15:16:38;;;;;;;16.13;10.63;;;;;;;2.34;100.00;98985.06;5032773;28;20033;-70
2022/04/01 15:19:05;;;;;;;16.90;11.20;;;;;;;2.40;100.00;98987.91;5033514;28;20040;-70
2022/04/01 15:21:32;;;;;;;20.48;12.00;;;;;;;2.44;100.00;98985.81;5015729;28;20382;-70
2022/04/01 15:23:58;;;;;;;16.23;10.18;;;;;;;2.39;98.77;98995.94;5032902;28;20034;-70
2022/04/01 15:26:23;;;;;;;16.45;10.57;;;;;;;2.25;100.00;98994.69;5033941;28;20086;-70
2022/04/01 15:28:49;;;;;;;18.45;10.95;;;;;;;2.30;100.00;98996.84;5015998;28;20123;-70
2022/04/01 15:31:16;;;;;;;20.40;11.98;;;;;;;2.30;100.00;98987.16;5032533;28;20033;-70
2022/04/01 15:33:43;;;;;;;17.70;10.45;;;;;;;2.35;100.00;98991.97;5032379;28;20029;-71
2022/04/01 15:36:11;;;;;;;19.35;12.05;;;;;;;2.33;100.00;99005.25;5032884;28;20065;-70
2022/04/01 15:38:39;;;;;;;18.42;11.27;;;;;;;2.36;100.00;99006.78;5014735;28;20049;-70
2022/04/01 15:41:06;;;;;;;19.02;11.63;;;;;;;2.39;100.00;99011.72;5032253;28;20043;-70
2022/04/01 15:43:33;;;;;;;18.70;11.68;;;;;;;2.12;100.00;99012.63;5014657;28;20044;-71
2022/04/01 15:46:01;;;;;;;19.23;11.43;;;;;;;2.34;99.20;99020.03;5032457;28;20025;-71
2022/04/01 15:48:26;;;;;;;18.75;10.90;;;;;;;2.27;100.00;99019.00;5034479;28;20041;-71
2022/04/01 15:50:52;;;;;;;17.55;11.18;;;;;;;2.25;97.30;99020.13;5030529;28;20398;-70
2022/04/01 15:53:20;;;;;;;19.25;11.60;;;;;;;2.21;97.80;99022.22;5032963;28;20475;-71
2022/04/01 15:55:46;;;;;;;19.45;11.25;;;;;;;2.27;98.14;99019.00;5016253;28;20493;-70
2022/04/01 15:58:14;;;;;;;16.70;10.98;;;;;;;2.28;97.96;99025.94;5033236;28;20046;-71
2022/04/01 16:00:43;;;;;;;18.10;10.85;;;;;;;2.03;99.54;99021.41;5016609;28;20398;-71
2022/04/01 16:03:14;;;;;;;19.13;11.43;;;;;;;2.10;99.06;99035.59;5032435;28;20078;-71
2022/04/01 16:05:42;;;;;;;18.58;11.00;;;;;;;2.02;100.00;99028.47;5031950;28;20049;-71
2022/04/01 16:08:08;;;;;;;;;;;;;;;1.94;100.00;99038.03;5036087;28;20030;-70
2022/04/01 16:10:33;;;;;;;18.65;10.70;;;;;;;1.85;99.69;99031.88;5033872;28;19913;-70